sensor_id;sensor_type;location;lat;lon;timestamp;P1;P2;P0
69350;PMS7003;57106;51.446;-2.606;2024-01-10T00:00:43;2;2;
69350;PMS7003;57106;51.446;-2.606;2024-01-10T00:03:08;4;2;
69350;PMS7003;57106;51.446;-2.606;2024-01-10T00:05:34;3;2;
69350;PMS7003;57106;51.446;-2.606;2024-01-10T00:08:00;3;2;
69350;PMS7003;57106;51.446;-2.606;2024-01-10T00:15:23;4;2;
69350;PMS7003;57106;51.446;-2.606;2024-01-10T00:17:43;2;1;
69350;PMS7003;57106;51.446;-2.606;2024-01-10T00:20:10;4;2;
69350;PMS7003;57106;51.446;-2.606;2024-01-10T00:22:35;1;1;
69350;PMS7003;57106;51.446;-2.606;2024-01-10T00:25:01;2;2;
69350;PMS7003;57106;51.446;-2.606;2024-01-10T00:37:11;1;1;
69350;PMS7003;57106;51.446;-2.606;2024-01-10T00:42:03;0;0;
69350;PMS7003;57106;51.446;-2.606;2024-01-10T00:51:45;2;1;
69350;PMS7003;57106;51.446;-2.606;2024-01-10T00:59:03;0;0;
69350;PMS7003;57106;51.446;-2.606;2024-01-10T01:01:29;2;2;
69350;PMS7003;57106;51.446;-2.606;2024-01-10T01:03:57;3;1;
69350;PMS7003;57106;51.446;-2.606;2024-01-10T01:47:40;1;1;
69350;PMS7003;57106;51.446;-2.606;2024-01-10T01:50:06;2;1;
69350;PMS7003;57106;51.446;-2.606;2024-01-10T01:52:31;1;0;
69350;PMS7003;57106;51.446;-2.606;2024-01-10T01:54:58;1;1;
69350;PMS7003;57106;51.446;-2.606;2024-01-10T01:57:23;1;0;
69350;PMS7003;57106;51.446;-2.606;2024-01-10T02:02:14;3;1;
69350;PMS7003;57106;51.446;-2.606;2024-01-10T02:04:40;3;2;
69350;PMS7003;57106;51.446;-2.606;2024-01-10T02:07:06;0;0;
69350;PMS7003;57106;51.446;-2.606;2024-01-10T02:09:32;2;1;
69350;PMS7003;57106;51.446;-2.606;2024-01-10T02:16:50;2;2;
69350;PMS7003;57106;51.446;-2.606;2024-01-10T02:19:19;2;1;
69350;PMS7003;57106;51.446;-2.606;2024-01-10T02:26:32;0;0;
69350;PMS7003;57106;51.446;-2.606;2024-01-10T03:14:55;1;1;
69350;PMS7003;57106;51.446;-2.606;2024-01-10T03:17:20;0;0;
69350;PMS7003;57106;51.446;-2.606;2024-01-10T03:24:38;1;1;
69350;PMS7003;57106;51.446;-2.606;2024-01-10T03:27:04;1;1;
69350;PMS7003;57106;51.446;-2.606;2024-01-10T03:29:30;4;1;
69350;PMS7003;57106;51.446;-2.606;2024-01-10T03:36:48;2;2;
69350;PMS7003;57106;51.446;-2.606;2024-01-10T03:39:14;4;2;
69350;PMS7003;57106;51.446;-2.606;2024-01-10T03:41:39;0;0;
69350;PMS7003;57106;51.446;-2.606;2024-01-10T03:48:56;3;2;
69350;PMS7003;57106;51.446;-2.606;2024-01-10T03:51:22;2;1;
69350;PMS7003;57106;51.446;-2.606;2024-01-10T03:53:48;2;2;
69350;PMS7003;57106;51.446;-2.606;2024-01-10T03:56:14;1;1;
69350;PMS7003;57106;51.446;-2.606;2024-01-10T03:58:40;2;2;
69350;PMS7003;57106;51.446;-2.606;2024-01-10T04:01:06;1;1;
69350;PMS7003;57106;51.446;-2.606;2024-01-10T04:03:32;3;2;
69350;PMS7003;57106;51.446;-2.606;2024-01-10T04:05:57;2;2;
69350;PMS7003;57106;51.446;-2.606;2024-01-10T04:08:23;0;0;
69350;PMS7003;57106;51.446;-2.606;2024-01-10T04:10:49;1;1;
69350;PMS7003;57106;51.446;-2.606;2024-01-10T04:13:15;3;2;
69350;PMS7003;57106;51.446;-2.606;2024-01-10T04:15:41;1;1;
69350;PMS7003;57106;51.446;-2.606;2024-01-10T04:18:07;1;1;
69350;PMS7003;57106;51.446;-2.606;2024-01-10T04:20:33;3;3;
69350;PMS7003;57106;51.446;-2.606;2024-01-10T04:22:58;2;2;
69350;PMS7003;57106;51.446;-2.606;2024-01-10T04:25:24;5;2;
69350;PMS7003;57106;51.446;-2.606;2024-01-10T04:27:50;2;2;
69350;PMS7003;57106;51.446;-2.606;2024-01-10T04:37:33;3;2;
69350;PMS7003;57106;51.446;-2.606;2024-01-10T04:39:59;3;2;
69350;PMS7003;57106;51.446;-2.606;2024-01-10T04:44:51;3;1;
69350;PMS7003;57106;51.446;-2.606;2024-01-10T04:47:19;1;1;
69350;PMS7003;57106;51.446;-2.606;2024-01-10T04:49:43;3;3;
69350;PMS7003;57106;51.446;-2.606;2024-01-10T04:52:09;4;1;
69350;PMS7003;57106;51.446;-2.606;2024-01-10T04:54:34;1;1;
69350;PMS7003;57106;51.446;-2.606;2024-01-10T04:57:00;3;2;
69350;PMS7003;57106;51.446;-2.606;2024-01-10T05:01:52;3;3;
69350;PMS7003;57106;51.446;-2.606;2024-01-10T05:06:44;4;1;
69350;PMS7003;57106;51.446;-2.606;2024-01-10T05:09:12;2;2;
69350;PMS7003;57106;51.446;-2.606;2024-01-10T05:11:36;2;1;
69350;PMS7003;57106;51.446;-2.606;2024-01-10T05:14:01;1;1;
69350;PMS7003;57106;51.446;-2.606;2024-01-10T05:18:53;1;1;
69350;PMS7003;57106;51.446;-2.606;2024-01-10T05:21:19;2;2;
69350;PMS7003;57106;51.446;-2.606;2024-01-10T05:23:45;3;1;
69350;PMS7003;57106;51.446;-2.606;2024-01-10T05:26:21;6;1;
69350;PMS7003;57106;51.446;-2.606;2024-01-10T05:28:37;4;2;
69350;PMS7003;57106;51.446;-2.606;2024-01-10T05:33:28;3;2;
69350;PMS7003;57106;51.446;-2.606;2024-01-10T05:43:10;4;2;
69350;PMS7003;57106;51.446;-2.606;2024-01-10T05:45:36;2;2;
69350;PMS7003;57106;51.446;-2.606;2024-01-10T05:48:02;2;2;
69350;PMS7003;57106;51.446;-2.606;2024-01-10T05:50:28;1;1;
69350;PMS7003;57106;51.446;-2.606;2024-01-10T06:00:12;1;1;
69350;PMS7003;57106;51.446;-2.606;2024-01-10T06:02:37;3;2;
69350;PMS7003;57106;51.446;-2.606;2024-01-10T06:05:04;3;3;
69350;PMS7003;57106;51.446;-2.606;2024-01-10T06:07:29;1;1;
69350;PMS7003;57106;51.446;-2.606;2024-01-10T06:09:55;6;3;
69350;PMS7003;57106;51.446;-2.606;2024-01-10T06:12:21;3;3;
69350;PMS7003;57106;51.446;-2.606;2024-01-10T06:14:46;2;2;
69350;PMS7003;57106;51.446;-2.606;2024-01-10T06:17:12;2;2;
69350;PMS7003;57106;51.446;-2.606;2024-01-10T06:19:38;3;0;
69350;PMS7003;57106;51.446;-2.606;2024-01-10T06:22:04;2;2;
69350;PMS7003;57106;51.446;-2.606;2024-01-10T06:24:30;1;1;
69350;PMS7003;57106;51.446;-2.606;2024-01-10T06:26:56;4;4;
69350;PMS7003;57106;51.446;-2.606;2024-01-10T06:29:22;2;2;
69350;PMS7003;57106;51.446;-2.606;2024-01-10T06:31:48;2;2;
69350;PMS7003;57106;51.446;-2.606;2024-01-10T06:34:18;2;2;
69350;PMS7003;57106;51.446;-2.606;2024-01-10T06:36:39;3;2;
69350;PMS7003;57106;51.446;-2.606;2024-01-10T06:39:05;6;2;
69350;PMS7003;57106;51.446;-2.606;2024-01-10T06:46:23;3;2;
69350;PMS7003;57106;51.446;-2.606;2024-01-10T06:48:49;2;1;
69350;PMS7003;57106;51.446;-2.606;2024-01-10T06:53:40;3;3;
69350;PMS7003;57106;51.446;-2.606;2024-01-10T06:56:06;1;1;
69350;PMS7003;57106;51.446;-2.606;2024-01-10T06:58:32;3;2;
69350;PMS7003;57106;51.446;-2.606;2024-01-10T07:03:30;2;2;
69350;PMS7003;57106;51.446;-2.606;2024-01-10T07:08:16;3;3;
69350;PMS7003;57106;51.446;-2.606;2024-01-10T07:15:33;2;2;
69350;PMS7003;57106;51.446;-2.606;2024-01-10T07:17:59;3;3;
69350;PMS7003;57106;51.446;-2.606;2024-01-10T07:20:25;3;2;
69350;PMS7003;57106;51.446;-2.606;2024-01-10T07:25:17;7;2;
69350;PMS7003;57106;51.446;-2.606;2024-01-10T07:27:42;3;2;
69350;PMS7003;57106;51.446;-2.606;2024-01-10T07:30:17;8;6;
69350;PMS7003;57106;51.446;-2.606;2024-01-10T07:37:31;3;2;
69350;PMS7003;57106;51.446;-2.606;2024-01-10T07:39:52;7;6;
69350;PMS7003;57106;51.446;-2.606;2024-01-10T07:42:18;4;3;
69350;PMS7003;57106;51.446;-2.606;2024-01-10T07:44:43;6;3;
69350;PMS7003;57106;51.446;-2.606;2024-01-10T07:47:09;4;4;
69350;PMS7003;57106;51.446;-2.606;2024-01-10T07:52:01;2;2;
69350;PMS7003;57106;51.446;-2.606;2024-01-10T07:54:27;4;4;
69350;PMS7003;57106;51.446;-2.606;2024-01-10T07:59:18;3;3;
69350;PMS7003;57106;51.446;-2.606;2024-01-10T08:01:53;3;3;
69350;PMS7003;57106;51.446;-2.606;2024-01-10T08:04:10;2;2;
69350;PMS7003;57106;51.446;-2.606;2024-01-10T08:06:36;2;2;
69350;PMS7003;57106;51.446;-2.606;2024-01-10T08:09:02;3;2;
69350;PMS7003;57106;51.446;-2.606;2024-01-10T08:13:54;6;3;
69350;PMS7003;57106;51.446;-2.606;2024-01-10T08:21:13;7;7;
69350;PMS7003;57106;51.446;-2.606;2024-01-10T08:23:37;6;4;
69350;PMS7003;57106;51.446;-2.606;2024-01-10T08:28:29;4;3;
69350;PMS7003;57106;51.446;-2.606;2024-01-10T08:30:55;3;3;
69350;PMS7003;57106;51.446;-2.606;2024-01-10T08:33:21;7;3;
69350;PMS7003;57106;51.446;-2.606;2024-01-10T08:35:51;6;4;
69350;PMS7003;57106;51.446;-2.606;2024-01-10T08:38:13;2;2;
69350;PMS7003;57106;51.446;-2.606;2024-01-10T08:40:37;4;3;
69350;PMS7003;57106;51.446;-2.606;2024-01-10T08:47:55;7;4;
69350;PMS7003;57106;51.446;-2.606;2024-01-10T08:50:21;4;3;
69350;PMS7003;57106;51.446;-2.606;2024-01-10T09:02:36;4;4;
69350;PMS7003;57106;51.446;-2.606;2024-01-10T09:09:47;2;2;
69350;PMS7003;57106;51.446;-2.606;2024-01-10T09:12:15;6;4;
69350;PMS7003;57106;51.446;-2.606;2024-01-10T09:26:47;2;2;
69350;PMS7003;57106;51.446;-2.606;2024-01-10T09:29:12;6;4;
69350;PMS7003;57106;51.446;-2.606;2024-01-10T09:31:38;8;7;
69350;PMS7003;57106;51.446;-2.606;2024-01-10T09:34:09;5;3;
69350;PMS7003;57106;51.446;-2.606;2024-01-10T09:36:30;6;6;
69350;PMS7003;57106;51.446;-2.606;2024-01-10T09:41:24;7;4;
69350;PMS7003;57106;51.446;-2.606;2024-01-10T09:43:48;9;4;
69350;PMS7003;57106;51.446;-2.606;2024-01-10T09:48:39;7;7;
69350;PMS7003;57106;51.446;-2.606;2024-01-10T09:51:05;9;7;
69350;PMS7003;57106;51.446;-2.606;2024-01-10T09:53:31;5;5;
69350;PMS7003;57106;51.446;-2.606;2024-01-10T09:55:57;5;4;
69350;PMS7003;57106;51.446;-2.606;2024-01-10T09:58:22;5;3;
69350;PMS7003;57106;51.446;-2.606;2024-01-10T10:00:48;4;3;
69350;PMS7003;57106;51.446;-2.606;2024-01-10T10:03:14;4;3;
69350;PMS7003;57106;51.446;-2.606;2024-01-10T10:05:40;5;5;
69350;PMS7003;57106;51.446;-2.606;2024-01-10T10:08:06;4;4;
69350;PMS7003;57106;51.446;-2.606;2024-01-10T10:10:31;9;8;
69350;PMS7003;57106;51.446;-2.606;2024-01-10T10:12:57;4;4;
69350;PMS7003;57106;51.446;-2.606;2024-01-10T10:15:24;7;7;
69350;PMS7003;57106;51.446;-2.606;2024-01-10T10:17:50;5;5;
69350;PMS7003;57106;51.446;-2.606;2024-01-10T10:20:17;7;5;
69350;PMS7003;57106;51.446;-2.606;2024-01-10T10:22:43;4;3;
69350;PMS7003;57106;51.446;-2.606;2024-01-10T10:25:06;5;3;
69350;PMS7003;57106;51.446;-2.606;2024-01-10T10:27:32;4;3;
69350;PMS7003;57106;51.446;-2.606;2024-01-10T10:29:57;5;3;
69350;PMS7003;57106;51.446;-2.606;2024-01-10T10:32:23;4;2;
69350;PMS7003;57106;51.446;-2.606;2024-01-10T10:34:49;4;4;
69350;PMS7003;57106;51.446;-2.606;2024-01-10T10:37:15;3;3;
69350;PMS7003;57106;51.446;-2.606;2024-01-10T10:39:41;5;4;
69350;PMS7003;57106;51.446;-2.606;2024-01-10T10:42:07;5;3;
69350;PMS7003;57106;51.446;-2.606;2024-01-10T10:44:33;4;4;
69350;PMS7003;57106;51.446;-2.606;2024-01-10T10:46:58;4;3;
69350;PMS7003;57106;51.446;-2.606;2024-01-10T10:49:26;4;4;
69350;PMS7003;57106;51.446;-2.606;2024-01-10T10:51:50;3;3;
69350;PMS7003;57106;51.446;-2.606;2024-01-10T10:54:18;5;4;
69350;PMS7003;57106;51.446;-2.606;2024-01-10T10:56:41;3;3;
69350;PMS7003;57106;51.446;-2.606;2024-01-10T10:59:09;4;4;
69350;PMS7003;57106;51.446;-2.606;2024-01-10T11:01:33;2;2;
69350;PMS7003;57106;51.446;-2.606;2024-01-10T11:03:59;4;4;
69350;PMS7003;57106;51.446;-2.606;2024-01-10T11:06:25;4;3;
69350;PMS7003;57106;51.446;-2.606;2024-01-10T11:08:51;4;2;
69350;PMS7003;57106;51.446;-2.606;2024-01-10T11:11:18;2;2;
69350;PMS7003;57106;51.446;-2.606;2024-01-10T11:13:50;4;4;
69350;PMS7003;57106;51.446;-2.606;2024-01-10T11:16:13;3;3;
69350;PMS7003;57106;51.446;-2.606;2024-01-10T11:21:04;7;3;
69350;PMS7003;57106;51.446;-2.606;2024-01-10T11:23:32;4;2;
69350;PMS7003;57106;51.446;-2.606;2024-01-10T11:25:51;3;3;
69350;PMS7003;57106;51.446;-2.606;2024-01-10T11:28:17;4;3;
69350;PMS7003;57106;51.446;-2.606;2024-01-10T11:30:48;4;3;
69350;PMS7003;57106;51.446;-2.606;2024-01-10T11:35:34;4;3;
69350;PMS7003;57106;51.446;-2.606;2024-01-10T11:38:00;4;3;
69350;PMS7003;57106;51.446;-2.606;2024-01-10T11:42:52;3;3;
69350;PMS7003;57106;51.446;-2.606;2024-01-10T11:47:43;3;3;
69350;PMS7003;57106;51.446;-2.606;2024-01-10T11:50:09;2;2;
69350;PMS7003;57106;51.446;-2.606;2024-01-10T11:52:36;3;3;
69350;PMS7003;57106;51.446;-2.606;2024-01-10T11:55:01;4;3;
69350;PMS7003;57106;51.446;-2.606;2024-01-10T11:57:27;4;4;
69350;PMS7003;57106;51.446;-2.606;2024-01-10T11:59:53;3;3;
69350;PMS7003;57106;51.446;-2.606;2024-01-10T12:02:18;3;2;
69350;PMS7003;57106;51.446;-2.606;2024-01-10T12:04:44;3;3;
69350;PMS7003;57106;51.446;-2.606;2024-01-10T12:07:12;2;2;
69350;PMS7003;57106;51.446;-2.606;2024-01-10T12:09:35;3;3;
69350;PMS7003;57106;51.446;-2.606;2024-01-10T12:12:01;7;4;
69350;PMS7003;57106;51.446;-2.606;2024-01-10T12:14:29;3;2;
69350;PMS7003;57106;51.446;-2.606;2024-01-10T12:16:53;3;2;
69350;PMS7003;57106;51.446;-2.606;2024-01-10T12:31:30;3;3;
69350;PMS7003;57106;51.446;-2.606;2024-01-10T12:36:19;5;4;
69350;PMS7003;57106;51.446;-2.606;2024-01-10T12:43:36;3;3;
69350;PMS7003;57106;51.446;-2.606;2024-01-10T12:46:02;5;4;
69350;PMS7003;57106;51.446;-2.606;2024-01-10T12:48:30;4;4;
69350;PMS7003;57106;51.446;-2.606;2024-01-10T12:55:50;7;5;
69350;PMS7003;57106;51.446;-2.606;2024-01-10T12:58:11;8;7;
69350;PMS7003;57106;51.446;-2.606;2024-01-10T13:00:37;3;3;
69350;PMS7003;57106;51.446;-2.606;2024-01-10T13:05:33;3;3;
69350;PMS7003;57106;51.446;-2.606;2024-01-10T13:15:12;4;4;
69350;PMS7003;57106;51.446;-2.606;2024-01-10T13:17:37;4;4;
69350;PMS7003;57106;51.446;-2.606;2024-01-10T13:39:30;5;2;
69350;PMS7003;57106;51.446;-2.606;2024-01-10T13:41:55;3;3;
69350;PMS7003;57106;51.446;-2.606;2024-01-10T13:44:21;5;3;
69350;PMS7003;57106;51.446;-2.606;2024-01-10T13:46:47;4;4;
69350;PMS7003;57106;51.446;-2.606;2024-01-10T13:49:12;3;3;
69350;PMS7003;57106;51.446;-2.606;2024-01-10T13:51:38;5;3;
69350;PMS7003;57106;51.446;-2.606;2024-01-10T13:54:04;4;3;
69350;PMS7003;57106;51.446;-2.606;2024-01-10T13:56:30;4;3;
69350;PMS7003;57106;51.446;-2.606;2024-01-10T13:58:56;3;3;
69350;PMS7003;57106;51.446;-2.606;2024-01-10T14:01:21;3;3;
69350;PMS7003;57106;51.446;-2.606;2024-01-10T14:03:47;7;3;
69350;PMS7003;57106;51.446;-2.606;2024-01-10T14:06:13;2;2;
69350;PMS7003;57106;51.446;-2.606;2024-01-10T14:08:38;3;2;
69350;PMS7003;57106;51.446;-2.606;2024-01-10T14:11:04;3;3;
69350;PMS7003;57106;51.446;-2.606;2024-01-10T14:13:30;3;2;
69350;PMS7003;57106;51.446;-2.606;2024-01-10T14:18:22;3;2;
69350;PMS7003;57106;51.446;-2.606;2024-01-10T14:20:48;2;2;
69350;PMS7003;57106;51.446;-2.606;2024-01-10T14:23:13;2;1;
69350;PMS7003;57106;51.446;-2.606;2024-01-10T14:25:39;2;2;
69350;PMS7003;57106;51.446;-2.606;2024-01-10T14:28:05;2;2;
69350;PMS7003;57106;51.446;-2.606;2024-01-10T14:30:31;5;3;
69350;PMS7003;57106;51.446;-2.606;2024-01-10T14:32:56;1;1;
69350;PMS7003;57106;51.446;-2.606;2024-01-10T14:35:22;2;2;
69350;PMS7003;57106;51.446;-2.606;2024-01-10T14:37:50;2;2;
69350;PMS7003;57106;51.446;-2.606;2024-01-10T14:40:14;3;2;
69350;PMS7003;57106;51.446;-2.606;2024-01-10T14:42:39;4;3;
69350;PMS7003;57106;51.446;-2.606;2024-01-10T14:45:05;2;2;
69350;PMS7003;57106;51.446;-2.606;2024-01-10T14:47:31;2;2;
69350;PMS7003;57106;51.446;-2.606;2024-01-10T14:49:57;3;2;
69350;PMS7003;57106;51.446;-2.606;2024-01-10T14:52:22;2;2;
69350;PMS7003;57106;51.446;-2.606;2024-01-10T14:54:48;4;4;
69350;PMS7003;57106;51.446;-2.606;2024-01-10T14:57:14;1;1;
69350;PMS7003;57106;51.446;-2.606;2024-01-10T14:59:40;3;2;
69350;PMS7003;57106;51.446;-2.606;2024-01-10T15:02:05;3;3;
69350;PMS7003;57106;51.446;-2.606;2024-01-10T15:04:33;3;2;
69350;PMS7003;57106;51.446;-2.606;2024-01-10T15:06:57;3;3;
69350;PMS7003;57106;51.446;-2.606;2024-01-10T15:09:23;4;2;
69350;PMS7003;57106;51.446;-2.606;2024-01-10T15:16:40;2;2;
69350;PMS7003;57106;51.446;-2.606;2024-01-10T15:19:06;3;1;
69350;PMS7003;57106;51.446;-2.606;2024-01-10T15:21:34;3;2;
69350;PMS7003;57106;51.446;-2.606;2024-01-10T15:23:58;3;2;
69350;PMS7003;57106;51.446;-2.606;2024-01-10T15:26:23;3;2;
69350;PMS7003;57106;51.446;-2.606;2024-01-10T15:28:50;3;3;
69350;PMS7003;57106;51.446;-2.606;2024-01-10T15:33:41;1;1;
69350;PMS7003;57106;51.446;-2.606;2024-01-10T15:38:32;1;1;
69350;PMS7003;57106;51.446;-2.606;2024-01-10T15:40:58;1;1;
69350;PMS7003;57106;51.446;-2.606;2024-01-10T15:43:23;2;2;
69350;PMS7003;57106;51.446;-2.606;2024-01-10T15:45:49;1;1;
69350;PMS7003;57106;51.446;-2.606;2024-01-10T15:48:17;2;2;
69350;PMS7003;57106;51.446;-2.606;2024-01-10T15:50:41;2;2;
69350;PMS7003;57106;51.446;-2.606;2024-01-10T15:53:07;3;2;
69350;PMS7003;57106;51.446;-2.606;2024-01-10T15:55:32;3;2;
69350;PMS7003;57106;51.446;-2.606;2024-01-10T15:58:04;2;2;
69350;PMS7003;57106;51.446;-2.606;2024-01-10T16:00:24;2;2;
69350;PMS7003;57106;51.446;-2.606;2024-01-10T16:02:50;3;3;
69350;PMS7003;57106;51.446;-2.606;2024-01-10T16:05:15;2;2;
69350;PMS7003;57106;51.446;-2.606;2024-01-10T16:07:41;2;2;
69350;PMS7003;57106;51.446;-2.606;2024-01-10T16:10:07;3;2;
69350;PMS7003;57106;51.446;-2.606;2024-01-10T16:12:34;4;3;
69350;PMS7003;57106;51.446;-2.606;2024-01-10T16:14:58;2;2;
69350;PMS7003;57106;51.446;-2.606;2024-01-10T16:17:24;3;2;
69350;PMS7003;57106;51.446;-2.606;2024-01-10T16:19:53;3;2;
69350;PMS7003;57106;51.446;-2.606;2024-01-10T16:22:16;2;2;
69350;PMS7003;57106;51.446;-2.606;2024-01-10T16:24:42;4;3;
69350;PMS7003;57106;51.446;-2.606;2024-01-10T16:27:07;2;2;
69350;PMS7003;57106;51.446;-2.606;2024-01-10T16:29:33;1;1;
69350;PMS7003;57106;51.446;-2.606;2024-01-10T16:31:59;2;2;
69350;PMS7003;57106;51.446;-2.606;2024-01-10T16:34:25;3;2;
69350;PMS7003;57106;51.446;-2.606;2024-01-10T16:36:50;2;2;
69350;PMS7003;57106;51.446;-2.606;2024-01-10T16:39:21;2;2;
69350;PMS7003;57106;51.446;-2.606;2024-01-10T16:41:42;3;3;
69350;PMS7003;57106;51.446;-2.606;2024-01-10T16:53:52;3;3;
69350;PMS7003;57106;51.446;-2.606;2024-01-10T17:03:42;5;3;
69350;PMS7003;57106;51.446;-2.606;2024-01-10T17:06:01;3;3;
69350;PMS7003;57106;51.446;-2.606;2024-01-10T17:08:26;4;4;
69350;PMS7003;57106;51.446;-2.606;2024-01-10T17:10:52;7;4;
69350;PMS7003;57106;51.446;-2.606;2024-01-10T17:13:23;4;4;
69350;PMS7003;57106;51.446;-2.606;2024-01-10T17:15:43;5;4;
69350;PMS7003;57106;51.446;-2.606;2024-01-10T17:18:09;3;3;
69350;PMS7003;57106;51.446;-2.606;2024-01-10T17:20:35;4;4;
69350;PMS7003;57106;51.446;-2.606;2024-01-10T17:23:01;4;4;
69350;PMS7003;57106;51.446;-2.606;2024-01-10T17:25:26;4;4;
69350;PMS7003;57106;51.446;-2.606;2024-01-10T17:32:47;5;4;
69350;PMS7003;57106;51.446;-2.606;2024-01-10T17:35:10;4;4;
69350;PMS7003;57106;51.446;-2.606;2024-01-10T17:37:35;5;5;
69350;PMS7003;57106;51.446;-2.606;2024-01-10T17:40:02;5;3;
69350;PMS7003;57106;51.446;-2.606;2024-01-10T17:42:27;5;5;
69350;PMS7003;57106;51.446;-2.606;2024-01-10T17:44:53;5;5;
69350;PMS7003;57106;51.446;-2.606;2024-01-10T17:47:19;4;4;
69350;PMS7003;57106;51.446;-2.606;2024-01-10T17:49:44;4;4;
69350;PMS7003;57106;51.446;-2.606;2024-01-10T17:52:10;3;3;
69350;PMS7003;57106;51.446;-2.606;2024-01-10T17:54:36;3;3;
69350;PMS7003;57106;51.446;-2.606;2024-01-10T17:57:04;4;3;
69350;PMS7003;57106;51.446;-2.606;2024-01-10T17:59:29;3;3;
69350;PMS7003;57106;51.446;-2.606;2024-01-10T18:01:54;4;4;
69350;PMS7003;57106;51.446;-2.606;2024-01-10T18:04:20;3;3;
69350;PMS7003;57106;51.446;-2.606;2024-01-10T18:06:46;7;5;
69350;PMS7003;57106;51.446;-2.606;2024-01-10T18:09:12;4;4;
69350;PMS7003;57106;51.446;-2.606;2024-01-10T18:11:37;5;5;
69350;PMS7003;57106;51.446;-2.606;2024-01-10T18:14:03;5;5;
69350;PMS7003;57106;51.446;-2.606;2024-01-10T18:16:28;8;7;
69350;PMS7003;57106;51.446;-2.606;2024-01-10T18:18:54;5;5;
69350;PMS7003;57106;51.446;-2.606;2024-01-10T18:21:20;4;3;
69350;PMS7003;57106;51.446;-2.606;2024-01-10T18:23:46;4;4;
69350;PMS7003;57106;51.446;-2.606;2024-01-10T18:26:11;3;3;
69350;PMS7003;57106;51.446;-2.606;2024-01-10T18:28:37;5;5;
69350;PMS7003;57106;51.446;-2.606;2024-01-10T18:31:03;8;5;
69350;PMS7003;57106;51.446;-2.606;2024-01-10T18:33:29;3;3;
69350;PMS7003;57106;51.446;-2.606;2024-01-10T18:35:55;4;4;
69350;PMS7003;57106;51.446;-2.606;2024-01-10T18:38:20;5;5;
69350;PMS7003;57106;51.446;-2.606;2024-01-10T18:40:46;5;5;
69350;PMS7003;57106;51.446;-2.606;2024-01-10T18:43:12;4;4;
69350;PMS7003;57106;51.446;-2.606;2024-01-10T18:45:38;5;5;
69350;PMS7003;57106;51.446;-2.606;2024-01-10T18:48:03;8;5;
69350;PMS7003;57106;51.446;-2.606;2024-01-10T18:50:29;7;4;
69350;PMS7003;57106;51.446;-2.606;2024-01-10T18:52:55;5;5;
69350;PMS7003;57106;51.446;-2.606;2024-01-10T18:57:47;5;5;
69350;PMS7003;57106;51.446;-2.606;2024-01-10T19:00:13;8;5;
69350;PMS7003;57106;51.446;-2.606;2024-01-10T19:05:04;11;8;
69350;PMS7003;57106;51.446;-2.606;2024-01-10T19:07:30;7;5;
69350;PMS7003;57106;51.446;-2.606;2024-01-10T19:09:58;5;5;
69350;PMS7003;57106;51.446;-2.606;2024-01-10T19:14:47;7;5;
69350;PMS7003;57106;51.446;-2.606;2024-01-10T19:19:44;12;9;
69350;PMS7003;57106;51.446;-2.606;2024-01-10T19:22:05;9;7;
69350;PMS7003;57106;51.446;-2.606;2024-01-10T19:24:31;8;7;
69350;PMS7003;57106;51.446;-2.606;2024-01-10T19:26:56;9;8;
69350;PMS7003;57106;51.446;-2.606;2024-01-10T19:29:27;10;9;
69350;PMS7003;57106;51.446;-2.606;2024-01-10T19:31:53;9;8;
69350;PMS7003;57106;51.446;-2.606;2024-01-10T19:34:13;11;9;
69350;PMS7003;57106;51.446;-2.606;2024-01-10T19:36:39;8;7;
69350;PMS7003;57106;51.446;-2.606;2024-01-10T19:43:57;9;9;
69350;PMS7003;57106;51.446;-2.606;2024-01-10T19:46:23;9;8;
69350;PMS7003;57106;51.446;-2.606;2024-01-10T19:48:48;10;10;
69350;PMS7003;57106;51.446;-2.606;2024-01-10T19:51:14;8;7;
69350;PMS7003;57106;51.446;-2.606;2024-01-10T19:53:40;7;7;
69350;PMS7003;57106;51.446;-2.606;2024-01-10T19:56:06;9;8;
69350;PMS7003;57106;51.446;-2.606;2024-01-10T19:58:33;10;9;
69350;PMS7003;57106;51.446;-2.606;2024-01-10T20:30:06;7;6;
69350;PMS7003;57106;51.446;-2.606;2024-01-10T20:42:14;2;2;
69350;PMS7003;57106;51.446;-2.606;2024-01-10T20:44:40;6;4;
69350;PMS7003;57106;51.446;-2.606;2024-01-10T20:49:30;7;6;
69350;PMS7003;57106;51.446;-2.606;2024-01-10T20:56:49;3;2;
69350;PMS7003;57106;51.446;-2.606;2024-01-10T20:59:14;4;4;
69350;PMS7003;57106;51.446;-2.606;2024-01-10T21:11:26;6;3;
69350;PMS7003;57106;51.446;-2.606;2024-01-10T21:18:41;3;3;
69350;PMS7003;57106;51.446;-2.606;2024-01-10T21:21:11;3;1;
69350;PMS7003;57106;51.446;-2.606;2024-01-10T21:26:01;4;4;
69350;PMS7003;57106;51.446;-2.606;2024-01-10T21:28:24;6;4;
69350;PMS7003;57106;51.446;-2.606;2024-01-10T21:30:50;6;4;
69350;PMS7003;57106;51.446;-2.606;2024-01-10T21:33:15;4;4;
69350;PMS7003;57106;51.446;-2.606;2024-01-10T21:38:09;5;2;
69350;PMS7003;57106;51.446;-2.606;2024-01-10T21:52:41;4;3;
69350;PMS7003;57106;51.446;-2.606;2024-01-10T22:00:03;3;2;
69350;PMS7003;57106;51.446;-2.606;2024-01-10T22:04:50;4;2;
69350;PMS7003;57106;51.446;-2.606;2024-01-10T22:19:24;4;4;
69350;PMS7003;57106;51.446;-2.606;2024-01-10T22:21:49;3;3;
69350;PMS7003;57106;51.446;-2.606;2024-01-10T22:24:15;2;2;
69350;PMS7003;57106;51.446;-2.606;2024-01-10T22:26:41;3;3;
69350;PMS7003;57106;51.446;-2.606;2024-01-10T22:31:33;3;2;
69350;PMS7003;57106;51.446;-2.606;2024-01-10T22:33:58;3;3;
69350;PMS7003;57106;51.446;-2.606;2024-01-10T22:36:24;3;3;
69350;PMS7003;57106;51.446;-2.606;2024-01-10T22:38:50;4;2;
69350;PMS7003;57106;51.446;-2.606;2024-01-10T22:41:16;2;2;
69350;PMS7003;57106;51.446;-2.606;2024-01-10T22:43:43;3;3;
69350;PMS7003;57106;51.446;-2.606;2024-01-10T22:46:08;3;3;
69350;PMS7003;57106;51.446;-2.606;2024-01-10T22:48:34;4;4;
69350;PMS7003;57106;51.446;-2.606;2024-01-10T22:53:25;2;2;
69350;PMS7003;57106;51.446;-2.606;2024-01-10T22:55:51;3;3;
69350;PMS7003;57106;51.446;-2.606;2024-01-10T22:58:17;4;4;
69350;PMS7003;57106;51.446;-2.606;2024-01-10T23:00:43;3;3;
69350;PMS7003;57106;51.446;-2.606;2024-01-10T23:25:02;4;4;
69350;PMS7003;57106;51.446;-2.606;2024-01-10T23:27:27;2;2;
69350;PMS7003;57106;51.446;-2.606;2024-01-10T23:32:22;3;3;
69350;PMS7003;57106;51.446;-2.606;2024-01-10T23:34:45;6;4;
69350;PMS7003;57106;51.446;-2.606;2024-01-10T23:37:11;6;6;
69350;PMS7003;57106;51.446;-2.606;2024-01-10T23:39:36;2;2;
69350;PMS7003;57106;51.446;-2.606;2024-01-10T23:42:02;3;2;
69350;PMS7003;57106;51.446;-2.606;2024-01-10T23:44:28;2;2;
69350;PMS7003;57106;51.446;-2.606;2024-01-10T23:46:54;4;3;
69350;PMS7003;57106;51.446;-2.606;2024-01-10T23:49:20;2;2;
69350;PMS7003;57106;51.446;-2.606;2024-01-10T23:51:45;3;2;
69350;PMS7003;57106;51.446;-2.606;2024-01-10T23:54:11;6;4;
69350;PMS7003;57106;51.446;-2.606;2024-01-10T23:56:37;1;1;
69350;PMS7003;57106;51.446;-2.606;2024-01-10T23:59:03;3;3;
